Time;durP1;ratioP1;P1;durP2;ratioP2;P2;SDS_P1;SDS_P2;PMS_P1;PMS_P2;Temp;Humidity;BMP_temperature;BMP_pressure;BME280_temperature;BME280_humidity;BME280_pressure;Samples;Min_cycle;Max_cycle;Signal;HPM_P1;HPM_P2
2023/09/02 14:40:26;;;;;;;;;;;;;;;;;;7388040;19;20019;-89
2023/09/02 18:52:56;;;;;;;;;;;;;;;;;;7396924;19;19943;-88
2023/09/02 18:55:23;;;;;;;;;;;;;;;;;;7399602;19;19922;-88
2023/09/02 18:58:24;;;;;;;;;;;;;;;;;;7395913;19;19931;-91
2023/09/02 19:01:21;;;;;;;;;;;;;;;;;;;;;
2023/09/02 19:04:12;;;;;;;;;;;;;;;;;;7392836;19;20319;-93
2023/09/02 19:07:32;;;;;;;;;;;;;;;;;;7394212;19;19922;-92
2023/09/02 19:09:59;;;;;;;;;;;;;;;;;;7400620;19;19927;-93
2023/09/02 19:12:25;;;;;;;;;;;;;;;;;;7401971;19;19925;-92
2023/09/02 19:14:52;;;;;;;;;;;;;;;;;;7401298;19;19930;-92
2023/09/02 19:17:19;;;;;;;;;;;;;;;;;;7401071;19;19940;-93
2023/09/02 19:19:45;;;;;;;;;;;;;;;;;;7398594;19;20363;-92
2023/09/02 19:22:12;;;;;;;;;;;;;;;;;;7395378;19;19914;-92
2023/09/02 19:24:57;;;;;;;;;;;;;;;;;;7396397;19;20522;-92
2023/09/02 19:27:23;;;;;;;;;;;;;;;;;;7394532;19;19926;-91
2023/09/02 19:29:51;;;;;;;;;;;;;;;;;;7398135;19;19926;-92
2023/09/02 19:32:17;;;;;;;;;;;;;;;;;;7396828;19;19955;-91
2023/09/02 19:34:44;;;;;;;;;;;;;;;;;;7395333;19;19930;-91
2023/09/02 19:37:11;;;;;;;;;;;;;;;;;;7410138;19;19911;-91
2023/09/02 19:39:38;;;;;;;;;;;;;;;;;;7425663;19;19907;-91
2023/09/02 19:42:04;;;;;;;;;;;;;;;;;;7425604;19;19950;-91
2023/09/02 19:44:31;;;;;;;;;;;;;;;;;;7427091;19;19918;-91
2023/09/02 19:46:58;;;;;;;;;;;;;;;;;;7426248;19;19923;-91
2023/09/02 19:49:25;;;;;;;;;;;;;;;;;;7410768;19;19929;-91
2023/09/02 19:51:51;;;;;;;;;;;;;;;;;;7396436;19;19926;-92
2023/09/02 19:54:18;;;;;;;;;;;;;;;;;;7398957;19;19923;-91
2023/09/02 19:56:45;;;;;;;;;;;;;;;;;;7398229;19;20090;-91
2023/09/02 19:59:12;;;;;;;;;;;;;;;;;;7399226;19;20329;-91
2023/09/02 20:01:38;;;;;;;;;;;;;;;;;;7394852;19;19923;-91
2023/09/02 20:04:05;;;;;;;;;;;;;;;;;;7394563;19;19930;-92
2023/09/02 20:06:32;;;;;;;;;;;;;;;;;;7400818;19;19961;-90
2023/09/02 20:08:59;;;;;;;;;;;;;;;;;;7402114;19;19927;-90
2023/09/02 20:11:25;;;;;;;;;;;;;;;;;;7403881;19;19946;-90
2023/09/02 20:13:52;;;;;;;;;;;;;;;;;;7404430;19;19938;-90
2023/09/02 20:16:18;;;;;;;;;;;;;;;;;;7402784;19;19935;-90
2023/09/02 20:18:45;;;;;;;;;;;;;;;;;;7401638;19;19927;-90
2023/09/02 20:21:12;;;;;;;;;;;;;;;;;;7402361;19;19943;-90
2023/09/02 20:23:39;;;;;;;;;;;;;;;;;;7406249;19;19926;-91
2023/09/02 20:26:09;;;;;;;;;;;;;;;;;;7397527;19;19922;-90
2023/09/02 20:28:36;;;;;;;;;;;;;;;;;;7398823;19;19998;-91
2023/09/02 20:31:02;;;;;;;;;;;;;;;;;;7399141;19;20341;-92
2023/09/02 20:33:29;;;;;;;;;;;;;;;;;;7398814;19;19930;-90
2023/09/02 20:35:59;;;;;;;;;;;;;;;;;;7400257;19;19935;-91
2023/09/02 20:38:26;;;;;;;;;;;;;;;;;;7392935;19;19931;-91
2023/09/02 20:40:52;;;;;;;;;;;;;;;;;;7392978;19;19922;-91
2023/09/02 20:43:19;;;;;;;;;;;;;;;;;;7396107;19;19919;-91
2023/09/02 20:45:45;;;;;;;;;;;;;;;;;;7392578;19;19927;-91
2023/09/02 20:48:12;;;;;;;;;;;;;;;;;;7392632;19;19939;-91
2023/09/02 20:50:39;;;;;;;;;;;;;;;;;;7395121;19;19937;-91
2023/09/02 20:53:06;;;;;;;;;;;;;;;;;;7394168;19;19936;-91
2023/09/02 20:55:32;;;;;;;;;;;;;;;;;;7392602;19;19926;-92
2023/09/02 20:57:59;;;;;;;;;;;;;;;;;;7394255;19;19921;-91
2023/09/02 21:00:26;;;;;;;;;;;;;;;;;;7392848;19;19936;-92
2023/09/02 21:02:54;;;;;;;;;;;;;;;;;;7392785;19;19931;-91
2023/09/02 21:05:21;;;;;;;;;;;;;;;;;;7393787;19;19975;-91
2023/09/02 21:07:48;;;;;;;;;;;;;;;;;;7396855;19;20270;-90
2023/09/02 21:10:15;;;;;;;;;;;;;;;;;;7399775;19;19922;-91
2023/09/02 21:12:41;;;;;;;;;;;;;;;;;;7396208;19;19947;-92
2023/09/02 21:15:08;;;;;;;;;;;;;;;;;;7399212;19;19991;-91
2023/09/02 21:17:34;;;;;;;;;;;;;;;;;;7397248;19;19915;-91
2023/09/02 21:20:02;;;;;;;;;;;;;;;;;;7394406;19;20283;-91
2023/09/02 21:22:32;;;;;;;;;;;;;;;;;;7394231;19;20266;-92
2023/09/02 21:24:58;;;;;;;;;;;;;;;;;;7394930;19;19935;-92
2023/09/02 21:27:25;;;;;;;;;;;;;;;;;;7393506;19;19951;-91
2023/09/02 21:29:52;;;;;;;;;;;;;;;;;;7392348;19;19919;-92
2023/09/02 21:32:18;;;;;;;;;;;;;;;;;;7394153;19;19931;-91
2023/09/02 21:34:45;;;;;;;;;;;;;;;;;;7395299;19;20256;-92
2023/09/02 21:37:13;;;;;;;;;;;;;;;;;;7394220;19;19922;-92
2023/09/02 21:39:39;;;;;;;;;;;;;;;;;;7394161;19;20341;-92
2023/09/02 21:42:06;;;;;;;;;;;;;;;;;;7391089;19;20313;-92
2023/09/02 21:44:32;;;;;;;;;;;;;;;;;;7393019;19;19990;-92
2023/09/02 21:46:59;;;;;;;;;;;;;;;;;;7392038;19;19936;-91
2023/09/02 21:49:25;;;;;;;;;;;;;;;;;;7394480;19;19929;-92
2023/09/02 21:51:52;;;;;;;;;;;;;;;;;;7394796;19;19930;-92
2023/09/02 21:54:18;;;;;;;;;;;;;;;;;;7396704;19;19921;-91
2023/09/02 21:56:45;;;;;;;;;;;;;;;;;;7396109;19;19926;-91
2023/09/02 21:59:12;;;;;;;;;;;;;;;;;;7394415;19;20349;-91
2023/09/02 22:01:38;;;;;;;;;;;;;;;;;;7389224;19;19930;-90
2023/09/02 22:04:05;;;;;;;;;;;;;;;;;;7393376;19;19923;-91
2023/09/02 22:06:32;;;;;;;;;;;;;;;;;;7390031;19;19934;-91
2023/09/02 22:08:59;;;;;;;;;;;;;;;;;;7412159;19;19919;-90
2023/09/02 22:11:26;;;;;;;;;;;;;;;;;;7422227;19;19923;-92
2023/09/02 22:13:52;;;;;;;;;;;;;;;;;;7420930;19;19918;-91
2023/09/02 22:16:19;;;;;;;;;;;;;;;;;;7422785;19;19944;-90
2023/09/02 22:18:45;;;;;;;;;;;;;;;;;;7415946;19;19923;-91
2023/09/02 22:21:25;;;;;;;;;;;;;;;;;;7396964;19;19927;-91
2023/09/02 22:23:52;;;;;;;;;;;;;;;;;;7398714;19;20354;-91
2023/09/02 22:26:18;;;;;;;;;;;;;;;;;;7396188;19;19926;-91
2023/09/02 22:28:45;;;;;;;;;;;;;;;;;;7387163;19;19919;-91
2023/09/02 22:31:13;;;;;;;;;;;;;;;;;;7393722;19;19918;-91
2023/09/02 22:33:40;;;;;;;;;;;;;;;;;;7392588;19;19922;-93
2023/09/02 22:36:06;;;;;;;;;;;;;;;;;;7397372;19;19923;-92
2023/09/02 22:38:33;;;;;;;;;;;;;;;;;;7398209;19;19919;-91
2023/09/02 22:41:20;;;;;;;;;;;;;;;;;;7390484;19;20404;-91
2023/09/02 22:43:47;;;;;;;;;;;;;;;;;;7389507;19;19943;-91
2023/09/02 22:46:13;;;;;;;;;;;;;;;;;;7389169;19;19923;-92
2023/09/02 22:48:40;;;;;;;;;;;;;;;;;;7387445;19;19944;-91
2023/09/02 22:51:07;;;;;;;;;;;;;;;;;;7389253;19;20470;-92
2023/09/02 22:53:34;;;;;;;;;;;;;;;;;;7387541;19;19998;-92
2023/09/02 22:56:08;;;;;;;;;;;;;;;;;;7389154;19;19923;-91
2023/09/02 22:58:34;;;;;;;;;;;;;;;;;;7387664;19;19922;-92
2023/09/02 23:01:03;;;;;;;;;;;;;;;;;;7378452;19;19982;-91
2023/09/02 23:03:30;;;;;;;;;;;;;;;;;;7387755;19;19934;-91
2023/09/02 23:06:06;;;;;;;;;;;;;;;;;;7385984;19;19922;-91
2023/09/02 23:08:33;;;;;;;;;;;;;;;;;;7391474;19;19915;-91
2023/09/02 23:11:00;;;;;;;;;;;;;;;;;;7394349;19;19954;-90
2023/09/02 23:13:26;;;;;;;;;;;;;;;;;;7394160;19;20408;-92
2023/09/02 23:15:53;;;;;;;;;;;;;;;;;;7394179;19;19922;-90
2023/09/02 23:18:20;;;;;;;;;;;;;;;;;;7393929;19;19930;-89
2023/09/02 23:20:48;;;;;;;;;;;;;;;;;;7394949;19;19923;-90
2023/09/02 23:23:14;;;;;;;;;;;;;;;;;;7397406;19;20583;-90
2023/09/02 23:25:41;;;;;;;;;;;;;;;;;;7394411;19;20404;-91
2023/09/02 23:28:07;;;;;;;;;;;;;;;;;;7393089;19;19930;-90
2023/09/02 23:30:34;;;;;;;;;;;;;;;;;;7392826;19;19970;-90
2023/09/02 23:33:01;;;;;;;;;;;;;;;;;;7395052;19;19927;-90
2023/09/02 23:35:27;;;;;;;;;;;;;;;;;;7393586;19;19930;-91
2023/09/02 23:37:54;;;;;;;;;;;;;;;;;;7392448;19;20381;-91
2023/09/02 23:40:21;;;;;;;;;;;;;;;;;;7393180;19;19925;-90
2023/09/02 23:42:47;;;;;;;;;;;;;;;;;;7392073;19;20412;-91
2023/09/02 23:45:14;;;;;;;;;;;;;;;;;;7393936;19;19939;-92
2023/09/02 23:47:41;;;;;;;;;;;;;;;;;;7392249;19;19944;-91
2023/09/02 23:50:08;;;;;;;;;;;;;;;;;;7391103;19;20687;-90
2023/09/02 23:52:34;;;;;;;;;;;;;;;;;;7396313;19;19931;-91
2023/09/02 23:55:01;;;;;;;;;;;;;;;;;;7398758;19;19974;-91
2023/09/02 23:57:28;;;;;;;;;;;;;;;;;;7398621;19;19937;-91
2023/09/02 23:59:54;;;;;;;;;;;;;;;;;;7399686;19;19937;-90
